createdAt,value
2023-01-10T00:00:51.425Z,9.60
2023-01-10T00:01:51.427Z,7.40
2023-01-10T00:02:51.425Z,9.40
2023-01-10T00:03:51.395Z,9.90
2023-01-10T00:04:51.479Z,9.40
2023-01-10T00:05:51.372Z,9.20
2023-01-10T00:06:51.407Z,11.40
2023-01-10T00:07:51.371Z,9.70
2023-01-10T00:08:51.341Z,9.80
2023-01-10T00:09:51.313Z,6.50
2023-01-10T00:10:51.313Z,8.60
2023-01-10T00:11:51.293Z,10.90
2023-01-10T00:12:51.283Z,9.90
2023-01-10T00:13:51.308Z,8.90
2023-01-10T00:14:51.287Z,7.90
2023-01-10T00:15:51.286Z,9.80
2023-01-10T00:16:51.246Z,7.80
2023-01-10T00:17:51.237Z,9.30
2023-01-10T00:18:51.226Z,11.90
2023-01-10T00:19:51.249Z,8.30
2023-01-10T00:20:51.197Z,8.30
2023-01-10T00:21:51.205Z,9.70
2023-01-10T00:22:52.137Z,7.10
2023-01-10T00:23:51.195Z,8.70
2023-01-10T00:24:51.155Z,6.80
2023-01-10T00:25:51.146Z,9.00
2023-01-10T00:26:51.183Z,9.30
2023-01-10T00:27:51.117Z,13.30
2023-01-10T00:28:51.145Z,7.90
2023-01-10T00:29:51.149Z,8.90
2023-01-10T00:30:51.107Z,9.00
2023-01-10T00:31:51.102Z,8.50
2023-01-10T00:32:51.076Z,10.20
2023-01-10T00:33:51.059Z,9.40
2023-01-10T00:34:51.109Z,10.50
2023-01-10T00:35:51.034Z,10.70
2023-01-10T00:36:51.038Z,11.40
2023-01-10T00:37:50.998Z,7.30
2023-01-10T00:38:50.998Z,8.30
2023-01-10T00:39:50.985Z,9.70
2023-01-10T00:40:51.007Z,9.90
2023-01-10T00:41:50.967Z,9.10
2023-01-10T00:42:50.972Z,9.80
2023-01-10T00:43:50.929Z,8.50
2023-01-10T00:44:50.927Z,10.60
2023-01-10T00:45:50.980Z,7.70
2023-01-10T00:46:50.904Z,10.30
2023-01-10T00:47:50.904Z,8.40
2023-01-10T00:48:50.914Z,9.10
2023-01-10T00:49:50.877Z,9.20
2023-01-10T00:50:50.923Z,7.80
2023-01-10T00:51:50.843Z,8.10
2023-01-10T00:52:50.846Z,10.70
2023-01-10T00:53:50.822Z,8.70
2023-01-10T00:54:50.821Z,10.00
2023-01-10T00:55:50.808Z,8.00
2023-01-10T00:56:50.815Z,8.10
2023-01-10T00:57:50.786Z,9.00
2023-01-10T00:58:50.790Z,10.90
2023-01-10T00:59:50.768Z,8.20
2023-01-10T01:00:50.806Z,5.90
2023-01-10T01:01:50.849Z,9.50
2023-01-10T01:02:50.769Z,11.10
2023-01-10T01:03:50.717Z,7.90
2023-01-10T01:04:50.747Z,6.40
2023-01-10T01:05:50.704Z,8.60
2023-01-10T01:06:51.653Z,9.10
2023-01-10T01:07:50.667Z,10.10
2023-01-10T01:08:50.658Z,11.80
2023-01-10T01:09:50.663Z,10.20
2023-01-10T01:10:50.648Z,8.70
2023-01-10T01:11:50.655Z,9.70
2023-01-10T01:12:50.636Z,6.30
2023-01-10T01:13:50.606Z,9.10
2023-01-10T01:14:50.625Z,12.10
2023-01-10T01:15:50.592Z,10.70
2023-01-10T01:16:50.583Z,4.20
2023-01-10T01:17:50.597Z,7.60
2023-01-10T01:18:50.543Z,8.80
2023-01-10T01:19:50.544Z,8.10
2023-01-10T01:20:50.529Z,10.20
2023-01-10T01:21:50.533Z,8.10
2023-01-10T01:22:50.544Z,9.30
2023-01-10T01:23:50.487Z,7.80
2023-01-10T01:24:50.509Z,10.90
2023-01-10T01:25:50.492Z,8.10
2023-01-10T01:26:50.469Z,6.00
2023-01-10T01:27:50.448Z,10.20
2023-01-10T01:28:50.437Z,10.20
2023-01-10T01:29:50.449Z,8.70
2023-01-10T01:30:50.477Z,9.90
2023-01-10T01:31:50.413Z,8.40
2023-01-10T01:32:50.415Z,8.70
2023-01-10T01:33:50.379Z,8.00
2023-01-10T01:34:50.408Z,6.30
2023-01-10T01:35:50.378Z,7.90
2023-01-10T01:36:50.349Z,6.80
2023-01-10T01:37:50.348Z,9.00
2023-01-10T01:38:50.328Z,7.50
2023-01-10T01:39:50.331Z,7.00
2023-01-10T01:40:50.331Z,11.00
2023-01-10T01:41:50.292Z,9.20
2023-01-10T01:42:50.279Z,9.10
2023-01-10T01:43:50.259Z,9.90
2023-01-10T01:44:50.259Z,7.40
2023-01-10T01:45:50.276Z,10.50
2023-01-10T01:46:50.232Z,8.70
2023-01-10T01:47:50.221Z,8.40
2023-01-10T01:48:50.231Z,6.80
2023-01-10T01:49:50.198Z,8.20
2023-01-10T01:50:50.219Z,8.00
2023-01-10T01:51:50.190Z,7.20
2023-01-10T01:52:50.180Z,7.90
2023-01-10T01:53:50.156Z,6.50
2023-01-10T01:54:50.161Z,8.80
2023-01-10T01:55:50.142Z,8.10
2023-01-10T01:56:50.151Z,9.00
2023-01-10T01:57:50.110Z,9.60
2023-01-10T01:58:50.100Z,8.00
2023-01-10T01:59:50.081Z,6.20
2023-01-10T02:00:50.235Z,8.80
2023-01-10T02:01:50.145Z,10.40
2023-01-10T02:03:01.749Z,8.50
2023-01-10T02:03:51.149Z,8.40
2023-01-10T02:04:50.033Z,10.40
2023-01-10T02:05:50.025Z,9.60
2023-01-10T02:06:50.034Z,9.00
2023-01-10T02:07:50.035Z,10.00
2023-01-10T02:08:49.999Z,9.20
2023-01-10T02:09:49.988Z,8.10
2023-01-10T02:10:49.996Z,8.10
2023-01-10T02:11:49.972Z,8.90
2023-01-10T02:12:49.978Z,9.50
2023-01-10T02:13:49.945Z,9.60
2023-01-10T02:14:49.925Z,5.80
2023-01-10T02:15:49.956Z,7.00
2023-01-10T02:16:49.910Z,10.70
2023-01-10T02:17:49.907Z,7.00
2023-01-10T02:18:49.884Z,8.70
2023-01-10T02:19:49.897Z,8.60
2023-01-10T02:20:49.920Z,6.60
2023-01-10T02:21:49.856Z,10.00
2023-01-10T02:22:49.869Z,8.80
2023-01-10T02:23:49.827Z,8.00
2023-01-10T02:24:49.846Z,8.80
2023-01-10T02:25:49.801Z,8.70
2023-01-10T02:26:49.805Z,5.30
2023-01-10T02:27:49.787Z,8.00
2023-01-10T02:28:49.799Z,9.30
2023-01-10T02:29:49.766Z,7.30
2023-01-10T02:30:49.757Z,8.80
2023-01-10T02:31:49.777Z,7.40
2023-01-10T02:33:04.267Z,6.80
2023-01-10T02:33:50.839Z,8.30
2023-01-10T02:34:49.738Z,10.70
2023-01-10T02:35:49.690Z,8.80
2023-01-10T02:36:49.680Z,7.60
2023-01-10T02:37:49.701Z,7.90
2023-01-10T02:38:49.678Z,7.20
2023-01-10T02:39:49.817Z,6.30
2023-01-10T02:40:49.670Z,8.40
2023-01-10T02:41:49.647Z,9.00
2023-01-10T02:42:49.721Z,7.10
2023-01-10T02:43:49.611Z,8.60
2023-01-10T02:44:49.619Z,7.70
2023-01-10T02:45:49.590Z,7.50
2023-01-10T02:46:49.625Z,8.40
2023-01-10T02:47:49.557Z,7.20
2023-01-10T02:48:49.581Z,9.10
2023-01-10T02:49:49.559Z,9.00
2023-01-10T02:50:49.543Z,8.40
2023-01-10T02:51:50.465Z,13.90
2023-01-10T02:52:49.519Z,7.50
2023-01-10T02:53:49.482Z,7.50
2023-01-10T02:54:49.498Z,7.30
2023-01-10T02:55:49.465Z,9.80
2023-01-10T02:56:50.410Z,7.10
2023-01-10T02:57:49.446Z,9.60
2023-01-10T02:58:49.446Z,9.70
2023-01-10T02:59:49.455Z,8.10
2023-01-10T03:00:49.408Z,5.60
2023-01-10T03:01:49.454Z,8.00
2023-01-10T03:02:49.416Z,9.20
2023-01-10T03:03:49.378Z,7.00
2023-01-10T03:04:49.408Z,12.70
2023-01-10T03:05:49.372Z,8.00
2023-01-10T03:06:49.364Z,7.90
2023-01-10T03:07:49.332Z,9.10
2023-01-10T03:08:49.331Z,8.20
2023-01-10T03:09:49.324Z,6.40
2023-01-10T03:10:49.338Z,6.90
2023-01-10T03:11:49.285Z,6.60
2023-01-10T03:12:49.277Z,10.20
2023-01-10T03:13:49.269Z,7.80
2023-01-10T03:14:49.262Z,7.00
2023-01-10T03:15:49.290Z,8.60
2023-01-10T03:16:49.268Z,8.30
2023-01-10T03:17:49.219Z,8.60
2023-01-10T03:18:49.233Z,8.80
2023-01-10T03:19:49.199Z,12.10
2023-01-10T03:20:49.221Z,9.00
2023-01-10T03:21:49.179Z,6.20
2023-01-10T03:22:49.159Z,8.20
2023-01-10T03:23:49.197Z,10.10
2023-01-10T03:24:49.142Z,10.40
2023-01-10T03:25:49.133Z,9.30
2023-01-10T03:26:49.127Z,8.30
2023-01-10T03:27:49.119Z,8.40
2023-01-10T03:28:49.146Z,7.60
2023-01-10T03:29:49.110Z,8.70
2023-01-10T03:30:49.082Z,7.00
2023-01-10T03:31:49.078Z,10.30
2023-01-10T03:32:49.050Z,10.00
2023-01-10T03:33:49.066Z,9.30
2023-01-10T03:34:49.061Z,11.30
2023-01-10T03:35:49.030Z,9.20
2023-01-10T03:36:49.014Z,7.30
2023-01-10T03:37:49.016Z,8.70
2023-01-10T03:38:48.992Z,7.80
2023-01-10T03:39:48.992Z,10.10
2023-01-10T03:40:48.994Z,10.50
2023-01-10T03:41:48.968Z,6.50
2023-01-10T03:42:48.953Z,10.90
2023-01-10T03:43:48.968Z,7.20
2023-01-10T03:44:48.933Z,10.30
2023-01-10T03:45:48.935Z,10.60
2023-01-10T03:46:48.978Z,8.00
2023-01-10T03:47:48.938Z,7.30
2023-01-10T03:48:48.904Z,6.80
2023-01-10T03:49:48.936Z,10.00
2023-01-10T03:50:48.864Z,7.90
2023-01-10T03:51:48.873Z,10.90
2023-01-10T03:52:48.844Z,8.00
2023-01-10T03:53:48.846Z,12.20
2023-01-10T03:54:48.821Z,10.30
2023-01-10T03:55:48.828Z,11.50
2023-01-10T03:56:48.819Z,10.10
2023-01-10T03:57:48.803Z,8.60
2023-01-10T03:58:48.775Z,8.70
2023-01-10T03:59:48.770Z,8.50
2023-01-10T04:00:48.814Z,6.60
2023-01-10T04:01:48.853Z,8.40
2023-01-10T04:02:48.732Z,12.30
2023-01-10T04:03:48.748Z,7.00
2023-01-10T04:04:48.753Z,10.10
2023-01-10T04:05:48.729Z,7.70
2023-01-10T04:06:48.694Z,6.60
2023-01-10T04:07:48.715Z,9.40
2023-01-10T04:08:48.706Z,11.00
2023-01-10T04:09:49.632Z,8.70
2023-01-10T04:10:48.648Z,12.20
2023-01-10T04:11:48.654Z,12.70
2023-01-10T04:12:48.629Z,7.30
2023-01-10T04:13:48.656Z,12.10
2023-01-10T04:14:48.604Z,7.40
2023-01-10T04:15:48.603Z,9.40
2023-01-10T04:16:48.597Z,7.40
2023-01-10T04:17:48.626Z,11.70
2023-01-10T04:18:48.588Z,7.80
2023-01-10T04:19:48.561Z,9.30
2023-01-10T04:20:50.663Z,8.90
2023-01-10T04:21:48.550Z,9.20
2023-01-10T04:22:48.641Z,11.50
2023-01-10T04:23:48.530Z,6.90
2023-01-10T04:24:48.501Z,9.70
2023-01-10T04:25:48.495Z,10.20
2023-01-10T04:26:48.478Z,11.00
2023-01-10T04:27:48.499Z,6.80
2023-01-10T04:28:48.482Z,6.90
2023-01-10T04:29:48.447Z,7.50
2023-01-10T04:30:48.454Z,6.80
2023-01-10T04:31:48.510Z,6.60
2023-01-10T04:32:48.484Z,10.20
2023-01-10T04:33:48.420Z,6.30
2023-01-10T04:34:48.384Z,9.80
2023-01-10T04:35:48.404Z,12.30
2023-01-10T04:36:50.470Z,10.20
2023-01-10T04:37:48.388Z,8.90
2023-01-10T04:38:48.353Z,13.50
2023-01-10T04:39:48.368Z,6.70
2023-01-10T04:40:48.316Z,7.40
2023-01-10T04:41:48.329Z,7.70
2023-01-10T04:42:48.294Z,6.90
2023-01-10T04:43:48.313Z,11.60
2023-01-10T04:44:49.224Z,7.30
2023-01-10T04:45:48.303Z,9.80
2023-01-10T04:46:48.258Z,8.80
2023-01-10T04:47:48.284Z,10.20
2023-01-10T04:48:48.240Z,11.70
2023-01-10T04:49:48.260Z,8.80
2023-01-10T04:50:48.239Z,11.00
2023-01-10T04:51:48.196Z,8.00
2023-01-10T04:52:48.230Z,8.50
2023-01-10T04:53:48.186Z,7.20
2023-01-10T04:54:48.182Z,8.40
2023-01-10T04:55:48.160Z,8.90
2023-01-10T04:56:48.141Z,13.80
2023-01-10T04:57:48.141Z,8.30
2023-01-10T04:58:48.157Z,9.60
2023-01-10T04:59:48.136Z,11.80
2023-01-10T05:00:48.124Z,7.30
2023-01-10T05:01:48.181Z,9.20
2023-01-10T05:02:48.279Z,9.30
2023-01-10T05:03:48.098Z,8.50
2023-01-10T05:04:48.078Z,9.00
2023-01-10T05:05:49.507Z,9.90
2023-01-10T05:06:48.058Z,10.60
2023-01-10T05:07:48.045Z,7.40
2023-01-10T05:08:48.056Z,10.70
2023-01-10T05:09:48.620Z,10.30
2023-01-10T05:10:47.982Z,7.20
2023-01-10T05:11:47.993Z,7.20
2023-01-10T05:12:48.099Z,11.20
2023-01-10T05:13:48.313Z,8.80
2023-01-10T05:14:47.947Z,8.50
2023-01-10T05:15:47.995Z,7.30
2023-01-10T05:16:47.975Z,10.30
2023-01-10T05:17:48.060Z,6.30
2023-01-10T05:18:47.920Z,8.20
2023-01-10T05:19:48.092Z,8.70
2023-01-10T05:20:48.859Z,10.40
2023-01-10T05:21:47.892Z,8.80
2023-01-10T05:22:47.873Z,9.30
2023-01-10T05:23:47.854Z,9.50
2023-01-10T05:24:49.292Z,8.20
2023-01-10T05:25:47.871Z,9.50
2023-01-10T05:26:47.861Z,9.10
2023-01-10T05:27:47.963Z,14.70
2023-01-10T05:28:47.806Z,8.60
2023-01-10T05:29:47.801Z,9.80
2023-01-10T05:30:48.245Z,10.20
2023-01-10T05:31:47.793Z,9.10
2023-01-10T05:32:47.781Z,11.60
2023-01-10T05:33:48.562Z,15.60
2023-01-10T05:34:47.719Z,8.40
2023-01-10T05:35:47.718Z,10.10
2023-01-10T05:36:47.718Z,9.30
2023-01-10T05:37:47.729Z,8.60
2023-01-10T05:38:47.694Z,10.50
2023-01-10T05:39:47.675Z,9.60
2023-01-10T05:40:47.664Z,11.10
2023-01-10T05:41:47.678Z,10.80
2023-01-10T05:42:48.588Z,8.10
2023-01-10T05:43:47.681Z,8.80
2023-01-10T05:44:47.640Z,9.40
2023-01-10T05:45:47.682Z,8.20
2023-01-10T05:46:47.627Z,13.20
2023-01-10T05:47:47.613Z,9.40
2023-01-10T05:48:47.579Z,12.20
2023-01-10T05:49:47.596Z,11.10
2023-01-10T05:50:47.579Z,14.10
2023-01-10T05:51:47.608Z,12.70
2023-01-10T05:52:49.490Z,11.70
2023-01-10T05:53:52.778Z,10.90
2023-01-10T05:54:47.511Z,8.00
2023-01-10T05:55:47.513Z,19.90
2023-01-10T05:56:47.507Z,9.80
2023-01-10T05:57:47.486Z,9.90
2023-01-10T05:58:51.442Z,9.60
2023-01-10T05:59:48.501Z,11.70
2023-01-10T06:00:47.458Z,10.90
2023-01-10T06:01:47.447Z,12.30
2023-01-10T06:02:47.550Z,11.10
2023-01-10T06:03:47.409Z,13.20
2023-01-10T06:04:48.377Z,11.80
2023-01-10T06:05:48.934Z,17.10
2023-01-10T06:06:47.391Z,14.20
2023-01-10T06:07:47.379Z,9.10
2023-01-10T06:08:47.376Z,7.80
2023-01-10T06:09:47.353Z,9.00
2023-01-10T06:10:47.350Z,8.50
2023-01-10T06:11:47.363Z,12.30
2023-01-10T06:12:47.335Z,11.00
2023-01-10T06:13:47.304Z,10.60
2023-01-10T06:14:47.293Z,11.10
2023-01-10T06:15:47.357Z,12.90
2023-01-10T06:16:47.278Z,8.60
2023-01-10T06:17:47.333Z,11.40
2023-01-10T06:18:47.260Z,12.80
2023-01-10T06:19:47.238Z,12.10
2023-01-10T06:20:47.236Z,11.50
2023-01-10T06:21:48.050Z,13.30
2023-01-10T06:22:47.201Z,13.80
2023-01-10T06:23:47.195Z,10.80
2023-01-10T06:24:47.217Z,13.40
2023-01-10T06:25:47.202Z,9.80
2023-01-10T06:26:47.163Z,9.90
2023-01-10T06:27:47.319Z,10.40
2023-01-10T06:28:47.159Z,12.70
2023-01-10T06:29:47.175Z,9.50
2023-01-10T06:30:47.155Z,12.20
2023-01-10T06:31:47.124Z,13.90
2023-01-10T06:32:47.126Z,14.20
2023-01-10T06:33:47.199Z,10.70
2023-01-10T06:34:47.125Z,10.10
2023-01-10T06:35:47.102Z,9.10
2023-01-10T06:36:47.058Z,9.00
2023-01-10T06:37:47.047Z,12.90
2023-01-10T06:38:47.078Z,11.50
2023-01-10T06:39:47.361Z,12.60
2023-01-10T06:40:47.036Z,10.80
2023-01-10T06:41:47.489Z,11.10
2023-01-10T06:42:46.994Z,15.20
2023-01-10T06:43:47.037Z,14.10
2023-01-10T06:44:46.976Z,12.10
2023-01-10T06:45:47.167Z,11.20
2023-01-10T06:46:46.956Z,15.00
2023-01-10T06:47:46.986Z,13.90
2023-01-10T06:48:46.942Z,10.10
2023-01-10T06:49:46.911Z,13.80
2023-01-10T06:50:46.906Z,11.60
2023-01-10T06:51:47.747Z,9.90
2023-01-10T06:52:47.114Z,13.30
2023-01-10T06:53:47.098Z,11.00
2023-01-10T06:54:47.269Z,10.10
2023-01-10T06:55:47.219Z,12.50
2023-01-10T06:56:46.878Z,12.00
2023-01-10T06:57:46.836Z,13.10
2023-01-10T06:58:46.819Z,11.60
2023-01-10T06:59:47.096Z,12.40
2023-01-10T07:00:46.819Z,11.60
2023-01-10T07:01:46.972Z,12.50
2023-01-10T07:02:47.153Z,12.20
2023-01-10T07:03:46.832Z,9.70
2023-01-10T07:04:46.769Z,13.70
2023-01-10T07:05:46.794Z,13.70
2023-01-10T07:06:46.740Z,9.70
2023-01-10T07:07:46.720Z,13.40
2023-01-10T07:08:46.723Z,10.50
2023-01-10T07:09:46.705Z,12.60
2023-01-10T07:10:46.739Z,13.20
2023-01-10T07:11:46.819Z,20.50
2023-01-10T07:12:46.725Z,12.00
2023-01-10T07:13:46.648Z,13.60
2023-01-10T07:14:46.673Z,15.10
2023-01-10T07:15:46.647Z,13.90
2023-01-10T07:16:46.639Z,13.40
2023-01-10T07:17:46.638Z,11.40
2023-01-10T07:18:46.606Z,11.20
2023-01-10T07:19:46.647Z,12.30
2023-01-10T07:20:46.581Z,12.70
2023-01-10T07:21:46.581Z,14.70
2023-01-10T07:22:46.564Z,13.10
2023-01-10T07:23:46.545Z,12.50
2023-01-10T07:24:46.568Z,11.20
2023-01-10T07:25:46.571Z,11.70
2023-01-10T07:26:46.521Z,11.90
2023-01-10T07:27:46.513Z,17.20
2023-01-10T07:28:46.879Z,15.30
2023-01-10T07:29:46.503Z,14.80
2023-01-10T07:30:46.506Z,13.00
2023-01-10T07:31:46.484Z,13.20
2023-01-10T07:32:46.443Z,13.90
2023-01-10T07:33:46.450Z,12.00
2023-01-10T07:34:46.436Z,13.30
2023-01-10T07:35:46.430Z,11.20
2023-01-10T07:36:46.418Z,14.90
2023-01-10T07:37:46.395Z,11.50
2023-01-10T07:38:47.341Z,19.80
2023-01-10T07:39:46.395Z,15.50
2023-01-10T07:40:46.358Z,14.20
2023-01-10T07:41:46.389Z,15.10
2023-01-10T07:42:46.349Z,14.40
2023-01-10T07:43:46.341Z,13.20
2023-01-10T07:44:48.647Z,11.70
2023-01-10T07:45:46.331Z,17.00
2023-01-10T07:46:46.286Z,13.60
2023-01-10T07:47:47.748Z,11.50
2023-01-10T07:48:46.307Z,14.40
2023-01-10T07:49:46.359Z,11.50
2023-01-10T07:50:46.264Z,11.30
2023-01-10T07:51:46.290Z,14.70
2023-01-10T07:52:46.236Z,14.30
2023-01-10T07:53:46.321Z,15.80
2023-01-10T07:54:46.239Z,16.10
2023-01-10T07:55:46.235Z,15.40
2023-01-10T07:56:46.221Z,12.90
2023-01-10T07:57:46.213Z,15.40
2023-01-10T07:58:46.181Z,12.40
2023-01-10T07:59:46.292Z,15.30
2023-01-10T08:00:46.179Z,13.20
2023-01-10T08:01:46.156Z,12.70
2023-01-10T08:02:46.289Z,15.70
2023-01-10T08:03:46.226Z,17.90
2023-01-10T08:04:46.103Z,13.20
2023-01-10T08:05:46.124Z,12.20
2023-01-10T08:06:46.084Z,16.80
2023-01-10T08:07:46.083Z,17.30
2023-01-10T08:08:46.108Z,13.50
2023-01-10T08:09:46.053Z,14.80
2023-01-10T08:10:46.053Z,12.70
2023-01-10T08:11:46.061Z,12.20
2023-01-10T08:12:46.005Z,13.00
2023-01-10T08:13:46.123Z,10.90
2023-01-10T08:14:46.047Z,16.60
2023-01-10T08:15:46.010Z,14.60
2023-01-10T08:16:45.966Z,18.20
2023-01-10T08:17:45.955Z,18.80
2023-01-10T08:18:46.001Z,16.10
2023-01-10T08:19:45.970Z,12.50
2023-01-10T08:20:45.923Z,17.70
2023-01-10T08:21:45.944Z,15.80
2023-01-10T08:22:45.921Z,14.70
2023-01-10T08:23:45.905Z,11.90
2023-01-10T08:24:45.961Z,14.30
2023-01-10T08:25:45.865Z,14.70
2023-01-10T08:26:45.867Z,12.40
2023-01-10T08:27:45.899Z,14.20
2023-01-10T08:28:45.846Z,16.30
2023-01-10T08:29:45.830Z,15.00
2023-01-10T08:30:45.847Z,13.80
2023-01-10T08:31:45.861Z,15.50
2023-01-10T08:32:45.827Z,18.10
2023-01-10T08:33:45.823Z,15.20
2023-01-10T08:34:45.765Z,14.00
2023-01-10T08:35:45.758Z,13.30
2023-01-10T08:36:45.760Z,18.00
2023-01-10T08:37:45.756Z,13.90
2023-01-10T08:38:45.934Z,12.90
2023-01-10T08:39:45.803Z,19.20
2023-01-10T08:40:45.702Z,16.90
2023-01-10T08:41:45.692Z,11.20
2023-01-10T08:42:45.690Z,18.30
2023-01-10T08:43:45.668Z,16.20
2023-01-10T08:44:45.684Z,18.10
2023-01-10T08:45:45.648Z,17.40
2023-01-10T08:46:45.896Z,12.20
2023-01-10T08:47:45.634Z,14.90
2023-01-10T08:48:45.618Z,15.20
2023-01-10T08:49:46.562Z,16.20
2023-01-10T08:50:45.639Z,16.40
2023-01-10T08:51:45.585Z,16.60
2023-01-10T08:52:45.570Z,15.20
2023-01-10T08:53:45.560Z,14.90
2023-01-10T08:54:45.541Z,14.70
2023-01-10T08:55:45.555Z,21.40
2023-01-10T08:56:45.549Z,17.10
2023-01-10T08:57:45.543Z,16.60
2023-01-10T08:58:45.526Z,16.60
2023-01-10T08:59:45.512Z,20.70
2023-01-10T09:00:45.494Z,15.80
2023-01-10T09:01:45.568Z,12.20
2023-01-10T09:02:45.525Z,17.00
2023-01-10T09:03:45.463Z,14.40
2023-01-10T09:04:45.496Z,15.00
2023-01-10T09:05:45.436Z,17.10
2023-01-10T09:06:45.425Z,19.10
2023-01-10T09:07:46.392Z,16.80
2023-01-10T09:08:45.388Z,11.30
2023-01-10T09:09:45.400Z,12.60
2023-01-10T09:10:45.413Z,16.60
2023-01-10T09:11:45.385Z,17.50
2023-01-10T09:12:45.399Z,13.50
2023-01-10T09:13:45.364Z,15.00
2023-01-10T09:14:45.332Z,16.30
2023-01-10T09:15:45.361Z,13.60
2023-01-10T09:16:45.316Z,18.60
2023-01-10T09:17:45.306Z,19.20
2023-01-10T09:18:45.319Z,16.30
2023-01-10T09:19:45.291Z,12.30
2023-01-10T09:20:45.282Z,18.20
2023-01-10T09:21:45.270Z,17.60
2023-01-10T09:22:45.283Z,14.30
2023-01-10T09:23:45.233Z,20.70
2023-01-10T09:24:45.239Z,17.00
2023-01-10T09:25:45.275Z,12.60
2023-01-10T09:26:45.219Z,17.40
2023-01-10T09:27:45.225Z,13.40
2023-01-10T09:28:47.413Z,17.10
2023-01-10T09:29:45.175Z,16.60
2023-01-10T09:30:45.160Z,14.10
2023-01-10T09:31:45.367Z,11.30
2023-01-10T09:32:45.126Z,14.20
2023-01-10T09:33:47.495Z,11.40
2023-01-10T09:34:45.100Z,16.10
2023-01-10T09:35:45.141Z,13.80
2023-01-10T09:36:45.139Z,14.70
2023-01-10T09:37:45.083Z,11.20
2023-01-10T09:38:45.338Z,12.40
2023-01-10T09:39:45.091Z,17.90
2023-01-10T09:40:45.034Z,13.90
2023-01-10T09:41:45.074Z,12.30
2023-01-10T09:42:45.041Z,14.50
2023-01-10T09:43:45.001Z,14.30
2023-01-10T09:44:45.093Z,15.90
2023-01-10T09:45:45.002Z,16.20
2023-01-10T09:46:45.061Z,15.80
2023-01-10T09:47:45.023Z,9.90
2023-01-10T09:48:44.961Z,15.40
2023-01-10T09:49:44.943Z,11.10
2023-01-10T09:50:44.954Z,13.30
2023-01-10T09:51:44.926Z,15.90
2023-01-10T09:52:44.974Z,14.30
2023-01-10T09:53:45.430Z,16.20
2023-01-10T09:54:44.885Z,18.50
2023-01-10T09:55:44.877Z,13.70
2023-01-10T09:56:44.865Z,17.80
2023-01-10T09:57:44.866Z,9.10
2023-01-10T09:58:44.875Z,11.00
2023-01-10T09:59:44.843Z,16.40
2023-01-10T10:00:44.815Z,15.40
2023-01-10T10:01:44.826Z,13.80
2023-01-10T10:02:44.837Z,11.90
2023-01-10T10:03:44.904Z,12.10
2023-01-10T10:04:44.804Z,15.90
2023-01-10T10:05:45.726Z,10.40
2023-01-10T10:06:44.755Z,12.30
2023-01-10T10:07:44.752Z,16.00
2023-01-10T10:08:44.730Z,14.40
2023-01-10T10:09:44.731Z,13.90
2023-01-10T10:10:44.750Z,14.80
2023-01-10T10:11:44.697Z,11.40
2023-01-10T10:12:44.685Z,15.70
2023-01-10T10:13:44.699Z,11.80
2023-01-10T10:14:44.685Z,14.30
2023-01-10T10:15:44.659Z,9.30
2023-01-10T10:16:44.681Z,12.50
2023-01-10T10:17:44.666Z,11.50
2023-01-10T10:18:44.648Z,13.60
2023-01-10T10:19:44.645Z,13.60
2023-01-10T10:20:44.619Z,11.30
2023-01-10T10:21:44.599Z,14.90
2023-01-10T10:22:44.632Z,14.40
2023-01-10T10:23:44.577Z,15.40
2023-01-10T10:24:44.559Z,17.30
2023-01-10T10:25:44.557Z,13.20
2023-01-10T10:26:44.565Z,16.90
2023-01-10T10:27:44.527Z,15.90
2023-01-10T10:28:53.860Z,12.10
2023-01-10T10:29:45.494Z,14.90
2023-01-10T10:30:44.507Z,12.60
2023-01-10T10:31:44.553Z,14.20
2023-01-10T10:32:44.490Z,11.50
2023-01-10T10:33:44.475Z,14.60
2023-01-10T10:34:44.472Z,14.90
2023-01-10T10:35:44.447Z,13.30
2023-01-10T10:36:44.440Z,12.30
2023-01-10T10:37:44.411Z,11.60
2023-01-10T10:38:44.401Z,14.20
2023-01-10T10:39:44.410Z,16.10
2023-01-10T10:40:44.380Z,16.50
2023-01-10T10:41:44.375Z,11.90
2023-01-10T10:42:44.361Z,15.20
2023-01-10T10:43:44.400Z,13.70
2023-01-10T10:44:44.418Z,12.80
2023-01-10T10:45:44.354Z,13.20
2023-01-10T10:46:44.330Z,15.20
2023-01-10T10:47:44.295Z,11.50
2023-01-10T10:48:44.283Z,13.10
2023-01-10T10:49:44.308Z,12.30
2023-01-10T10:50:44.310Z,13.00
2023-01-10T10:51:44.286Z,14.40
2023-01-10T10:52:44.264Z,15.10
2023-01-10T10:53:44.232Z,13.70
2023-01-10T10:54:45.827Z,11.60
2023-01-10T10:55:44.211Z,12.80
2023-01-10T10:56:44.207Z,15.20
2023-01-10T10:57:59.002Z,15.00
2023-01-10T10:58:45.179Z,10.50
2023-01-10T10:59:44.178Z,12.30
2023-01-10T11:00:44.205Z,11.90
2023-01-10T11:01:44.203Z,15.10
2023-01-10T11:02:44.139Z,12.00
2023-01-10T11:03:44.122Z,11.00
2023-01-10T11:04:44.218Z,13.50
2023-01-10T11:05:44.145Z,11.80
2023-01-10T11:06:44.077Z,13.10
2023-01-10T11:07:44.102Z,12.80
2023-01-10T11:08:44.070Z,17.90
2023-01-10T11:09:44.079Z,9.90
2023-01-10T11:10:44.073Z,17.90
2023-01-10T11:11:44.050Z,14.70
2023-01-10T11:12:44.033Z,13.40
2023-01-10T11:13:44.010Z,14.50
2023-01-10T11:14:44.033Z,20.10
2023-01-10T11:15:43.996Z,14.30
2023-01-10T11:16:44.033Z,10.30
2023-01-10T11:17:43.969Z,10.10
2023-01-10T11:18:43.970Z,12.80
2023-01-10T11:19:43.940Z,11.60
2023-01-10T11:20:43.950Z,13.40
2023-01-10T11:21:43.951Z,14.00
2023-01-10T11:22:43.916Z,12.90
2023-01-10T11:23:43.909Z,16.40
2023-01-10T11:24:43.914Z,13.70
2023-01-10T11:25:43.891Z,14.10
2023-01-10T11:26:43.861Z,14.50
2023-01-10T11:27:43.884Z,16.00
2023-01-10T11:28:43.855Z,14.30
2023-01-10T11:29:43.827Z,11.20
2023-01-10T11:30:43.832Z,10.20
2023-01-10T11:31:43.889Z,10.80
2023-01-10T11:32:44.060Z,14.40
2023-01-10T11:33:43.788Z,11.10
2023-01-10T11:34:43.795Z,12.00
2023-01-10T11:35:43.766Z,14.70
2023-01-10T11:36:43.756Z,14.60
2023-01-10T11:37:43.767Z,11.40
2023-01-10T11:38:43.790Z,13.70
2023-01-10T11:39:43.727Z,14.30
2023-01-10T11:40:43.723Z,12.00
2023-01-10T11:41:43.713Z,12.40
2023-01-10T11:42:43.692Z,18.30
2023-01-10T11:43:43.684Z,12.00
2023-01-10T11:44:43.700Z,11.90
2023-01-10T11:45:43.705Z,14.00
2023-01-10T11:46:43.651Z,12.90
2023-01-10T11:47:45.717Z,9.00
2023-01-10T11:49:04.365Z,12.60
2023-01-10T11:49:44.623Z,14.20
2023-01-10T11:50:43.592Z,15.10
2023-01-10T11:51:43.589Z,10.70
2023-01-10T11:52:43.601Z,15.00
2023-01-10T11:53:43.605Z,15.10
2023-01-10T11:54:43.569Z,16.20
2023-01-10T11:55:43.550Z,11.50
2023-01-10T11:56:43.671Z,11.30
2023-01-10T11:57:44.200Z,13.00
2023-01-10T11:58:43.550Z,14.20
2023-01-10T11:59:43.501Z,12.40
2023-01-10T12:00:43.870Z,13.90
2023-01-10T12:01:43.482Z,15.00
2023-01-10T12:02:43.512Z,11.70
2023-01-10T12:03:43.476Z,13.50
2023-01-10T12:04:43.491Z,14.10
2023-01-10T12:05:43.436Z,12.50
2023-01-10T12:06:43.432Z,10.10
2023-01-10T12:07:43.415Z,13.30
2023-01-10T12:08:43.419Z,16.00
2023-01-10T12:09:43.419Z,14.30
2023-01-10T12:10:43.401Z,13.30
2023-01-10T12:11:43.424Z,16.90
2023-01-10T12:12:43.395Z,12.60
2023-01-10T12:13:43.343Z,13.80
2023-01-10T12:14:43.362Z,17.40
2023-01-10T12:15:43.353Z,12.60
2023-01-10T12:16:43.378Z,15.40
2023-01-10T12:17:43.314Z,12.60
2023-01-10T12:18:43.332Z,10.90
2023-01-10T12:19:43.275Z,12.30
2023-01-10T12:20:43.274Z,15.60
2023-01-10T12:21:43.298Z,15.00
2023-01-10T12:22:43.339Z,13.30
2023-01-10T12:23:43.235Z,10.90
2023-01-10T12:24:43.258Z,14.10
2023-01-10T12:25:43.236Z,13.40
2023-01-10T12:26:43.233Z,12.20
2023-01-10T12:27:43.185Z,10.90
2023-01-10T12:28:43.180Z,11.50
2023-01-10T12:29:43.164Z,11.30
2023-01-10T12:30:43.285Z,14.20
2023-01-10T12:31:43.180Z,14.00
2023-01-10T12:32:43.161Z,14.30
2023-01-10T12:33:43.124Z,15.20
2023-01-10T12:34:43.131Z,11.70
2023-01-10T12:35:43.099Z,10.80
2023-01-10T12:36:43.130Z,12.40
2023-01-10T12:37:43.082Z,9.60
2023-01-10T12:38:43.123Z,10.90
2023-01-10T12:39:43.080Z,9.60
2023-01-10T12:40:43.075Z,12.60
2023-01-10T12:41:43.044Z,15.00
2023-01-10T12:42:43.056Z,11.60
2023-01-10T12:43:43.023Z,14.80
2023-01-10T12:44:43.050Z,14.30
2023-01-10T12:45:43.026Z,12.30
2023-01-10T12:47:05.104Z,15.10
2023-01-10T12:47:44.153Z,11.10
2023-01-10T12:48:42.956Z,15.20
2023-01-10T12:49:42.945Z,14.70
2023-01-10T12:50:42.939Z,12.00
2023-01-10T12:51:42.927Z,9.70
2023-01-10T12:52:42.911Z,14.90
2023-01-10T12:53:42.944Z,13.90
2023-01-10T12:54:42.907Z,13.40
2023-01-10T12:55:42.885Z,11.50
2023-01-10T12:56:42.887Z,12.00
2023-01-10T12:57:42.854Z,14.70
2023-01-10T12:58:42.902Z,10.70
2023-01-10T12:59:42.857Z,12.20
2023-01-10T13:00:48.127Z,12.30
2023-01-10T13:01:43.917Z,14.80